This is the latest recevied packets stored in our database for station/object SBTA-0. If no packets are shown the sender has not sent any packets the latest 24 hours.

If you compare the raw packets with similar data from other websites it may differ (especially the path), the reason is that we are not collecting packets from the same APRS-IS servers. Each APRS-IS server performes duplicate filtering, and which packet that is considered to be a duplicate may differ depending on which APRS-IS server you receive your data from.

1590693884: SBTA-0>APBK10,TCPIP,qAS,SBTA:!2302.41S/04530.96W^Base de Aviacao de Taubate Airport METAR SBTA 281900Z 05003KT CAVOK 21/09 Q1020

1590751449: SBTA-0>APBK10,TCPIP,qAS,SBTA:!2302.41S/04530.96W^Base de Aviacao de Taubate Airport METAR SBTA 291100Z 34001KT 3000 BR OVC003 09/08 Q1024

1590769491: SBTA-0>APBK10,TCPIP,qAS,SBTA:!2302.41S/04530.96W^Base de Aviacao de Taubate Airport METAR SBTA 291600Z 03005KT CAVOK 22/12 Q1020

Initial position
Current position
Ruler